Flight Track Log - Related Links

Times and Time Zones

All times are in EDT time to prevent confusion due to time zone crossing. See the N649TP flight status page for this flight to view local times or setup timezone preferences in your user account.

Time Position Orientation Groundspeed Altitude Reporting Facility
EDT Latitude Longitude Course Direction KTS MPH feet Rate Location/Type
Thu 06:27:11 PM 40.7833 -73.0833 90° East 87 100 800  Level New York TRACON
Thu 06:28:11 PM 40.7833 -73.0500 90° East 108 124 1,300 550 Climbing New York TRACON
Thu 06:29:11 PM 40.8000 -73.0167 57° Northeast 136 157 1,900 450 Climbing New York TRACON
Thu 06:30:11 PM 40.8333 -73.0000 21° North 141 162 2,200 400 Climbing New York TRACON
Thu 06:31:11 PM 40.8833 -72.9833 14° North 140 161 2,700 333 Climbing New York TRACON
Thu 06:32:17 PM 40.9167 -72.9500 37° Northeast 142 163 2,900 100 Climbing New York TRACON
Thu 06:33:11 PM 40.9500 -72.9333 21° North 148 170 2,900  Level New York TRACON
Thu 06:34:17 PM 40.9833 -72.9000 37° Northeast 147 169 2,900  Level New York TRACON
Thu 06:35:17 PM 41.0167 -72.8833 21° North 153 176 2,900  Level New York TRACON
Thu 06:36:17 PM 41.0667 -72.8500 27° Northeast 152 175 2,900  Level New York TRACON
Thu 06:37:17 PM 41.1000 -72.8333 21° North 153 176 2,900  Level New York TRACON
Thu 06:38:11 PM 41.1333 -72.8167 21° North 152 175 2,900 -200 Level New York TRACON
Thu 06:39:17 PM 41.1833 -72.7833 27° Northeast 160 184 2,500 -500 Descending New York TRACON
Thu 06:40:11 PM 41.2167 -72.7500 37° Northeast 166 191 1,900 -667 Descending New York TRACON
Thu 06:42:00 PM 41.2564 -72.7182 31° Northeast  Level FlightAware Approximate
Thu 06:49:00 PM 41.3650 -72.5368 56° Northeast  Level FlightAware Approximate
Thu 06:50:00 PM 41.3791 -72.5084 56° Northeast  Level FlightAware Approximate
Thu 06:51:00 PM 41.3833 -72.5000 56° Northeast  Level FlightAware Approximate
Thu 06:52:00 PM 41.3837 -72.5058 56° Northeast  Level Estimated
Thu 06:53:00 PM 41.3833 -72.5000 56° Northeast  Level FlightAware Approximate
Thu 06:54:00 PM 41.3837 -72.5058 56° Northeast  Level Estimated
Thu 06:55:00 PM 41.3833 -72.5000 56° Northeast  Level FlightAware Approximate
Thu 06:56:00 PM 41.3837 -72.5058 56° Northeast  Level Estimated
Thu 06:57:00 PM 41.3833 -72.5000 56° Northeast  Level FlightAware Approximate
Thu 06:58:00 PM 41.3837 -72.5058 56° Northeast  Level Estimated
Thu 06:59:00 PM 41.3833 -72.5000 56° Northeast  Level FlightAware Approximate
Thu 07:00:00 PM 41.3837 -72.5058 56° Northeast  Level Estimated
Thu 07:01:00 PM 41.3833 -72.5000 56° Northeast  Level FlightAware Approximate

Login

Don't have an account? Register now (free) for customized features, flight alerts, and more!